Time;durP1;ratioP1;P1;durP2;ratioP2;P2;SDS_P1;SDS_P2;PMS_P1;PMS_P2;Temp;Humidity;BMP_temperature;BMP_pressure;BME280_temperature;BME280_humidity;BME280_pressure;Samples;Min_cycle;Max_cycle;Signal;HPM_P1;HPM_P2
2024/02/27 00:02:16;;;;;;;44.70;31.92;;;5.30;99.90;;;;;;4965387;28;20172;-85
2024/02/27 00:04:48;;;;;;;44.47;29.50;;;5.30;99.90;;;;;;4969957;28;20220;-85
2024/02/27 00:07:14;;;;;;;47.75;27.70;;;5.10;99.90;;;;;;4982663;28;20033;-85
2024/02/27 00:09:44;;;;;;;38.95;26.30;;;5.30;99.90;;;;;;4976820;28;20619;-86
2024/02/27 00:12:09;;;;;;;40.78;27.48;;;5.30;99.90;;;;;;4979208;28;20039;-85
2024/02/27 00:14:35;;;;;;;36.33;23.77;;;5.20;99.90;;;;;;4966233;28;20053;-84
2024/02/27 00:17:00;;;;;;;38.17;28.50;;;5.20;99.90;;;;;;4967199;28;20453;-86
2024/02/27 00:19:26;;;;;;;37.78;29.25;;;5.30;99.90;;;;;;4980473;28;20041;-85
2024/02/27 00:21:53;;;;;;;41.17;24.92;;;5.30;99.90;;;;;;4965614;28;20061;-85
2024/02/27 00:24:19;;;;;;;39.35;25.15;;;5.20;99.90;;;;;;4966738;28;20046;-85
2024/02/27 00:26:45;;;;;;;42.10;28.83;;;5.20;99.90;;;;;;4984462;28;20042;-85
2024/02/27 00:29:10;;;;;;;43.45;26.33;;;5.20;99.90;;;;;;4967667;28;20035;-81
2024/02/27 00:31:36;;;;;;;41.88;27.55;;;5.20;99.90;;;;;;4966206;28;20037;-83
2024/02/27 00:34:01;;;;;;;44.78;30.88;;;5.20;99.90;;;;;;4963688;28;20027;-83
2024/02/27 00:36:27;;;;;;;42.63;29.05;;;5.20;99.90;;;;;;4965123;28;20034;-84
2024/02/27 00:38:54;;;;;;;42.70;27.63;;;5.30;99.90;;;;;;4966299;28;20151;-83
2024/02/27 00:41:19;;;;;;;43.42;26.60;;;5.20;99.90;;;;;;4967971;28;20527;-83
2024/02/27 00:43:45;;;;;;;38.30;24.42;;;5.20;99.90;;;;;;4979685;28;20048;-84
2024/02/27 00:46:12;;;;;;;41.83;25.42;;;5.20;99.90;;;;;;4965811;28;20019;-84
2024/02/27 00:54:25;;;;;;;36.83;23.40;;;5.30;99.90;;;;;;4990981;28;20072;-83
2024/02/27 01:03:15;;;;;;;39.65;24.85;;;5.20;99.90;;;;;;4995803;28;20032;-83
2024/02/27 01:05:41;;;;;;;40.83;23.55;;;5.30;99.90;;;;;;4991797;28;20026;-83
2024/02/27 01:08:07;;;;;;;35.53;22.38;;;5.30;99.90;;;;;;4962727;28;20077;-84
2024/02/27 01:10:32;;;;;;;35.60;22.70;;;5.30;99.90;;;;;;4968777;28;20034;-83
2024/02/27 01:12:58;;;;;;;40.40;25.65;;;5.30;99.90;;;;;;4967361;28;20018;-83
2024/02/27 01:15:23;;;;;;;36.20;23.08;;;5.30;99.90;;;;;;4977786;28;20034;-84
2024/02/27 01:17:49;;;;;;;38.35;22.52;;;5.30;99.90;;;;;;4971740;28;20061;-84
2024/02/27 01:20:15;;;;;;;37.15;23.50;;;5.30;99.90;;;;;;4973037;28;20034;-84
2024/02/27 01:22:40;;;;;;;38.90;25.58;;;5.20;99.90;;;;;;4972229;28;20022;-83
2024/02/27 01:25:07;;;;;;;38.17;23.23;;;5.30;99.90;;;;;;4970295;28;20029;-83
2024/02/27 01:27:33;;;;;;;38.85;24.23;;;5.30;99.90;;;;;;4957926;28;20364;-83
2024/02/27 01:29:58;;;;;;;40.10;23.40;;;5.30;99.90;;;;;;4974454;28;20045;-83
2024/02/27 01:32:24;;;;;;;39.08;27.55;;;5.30;99.90;;;;;;5002393;28;20109;-83
2024/02/27 01:34:50;;;;;;;38.25;24.23;;;5.20;99.90;;;;;;4984922;28;20454;-83
2024/02/27 01:37:15;;;;;;;36.25;22.52;;;5.20;99.90;;;;;;4969382;28;20034;-83
2024/02/27 01:39:41;;;;;;;38.15;23.65;;;5.20;99.90;;;;;;4999149;28;20037;-83
2024/02/27 01:42:06;;;;;;;39.65;23.02;;;5.20;99.90;;;;;;4987462;28;20026;-82
2024/02/27 01:44:32;;;;;;;37.03;23.00;;;5.30;99.90;;;;;;4969104;28;20031;-82
2024/02/27 01:46:58;;;;;;;36.13;25.23;;;5.20;99.90;;;;;;4982843;28;20783;-83
2024/02/27 01:49:25;;;;;;;37.38;23.95;;;5.30;99.90;;;;;;4984933;28;20058;-82
2024/02/27 01:51:51;;;;;;;40.53;24.48;;;5.20;99.90;;;;;;4968365;28;20042;-83
2024/02/27 01:54:19;;;;;;;33.67;21.65;;;5.30;99.90;;;;;;4985617;28;20108;-84
2024/02/27 01:56:45;;;;;;;39.15;24.08;;;5.30;99.90;;;;;;4963714;28;20583;-83
2024/02/27 01:59:11;;;;;;;35.75;22.42;;;5.30;99.90;;;;;;4971029;28;20037;-83
2024/02/27 02:01:38;;;;;;;35.33;21.98;;;5.20;99.90;;;;;;4971055;28;20030;-84
2024/02/27 02:04:04;;;;;;;33.70;21.13;;;5.20;99.90;;;;;;4967676;28;20034;-84
2024/02/27 02:06:29;;;;;;;35.88;26.90;;;5.30;99.90;;;;;;4982296;28;20148;-82
2024/02/27 02:08:55;;;;;;;35.38;20.45;;;5.20;99.90;;;;;;4985145;28;20038;-83
2024/02/27 02:11:23;;;;;;;35.13;22.20;;;5.20;99.90;;;;;;4965916;28;20061;-83
2024/02/27 02:13:49;;;;;;;35.28;23.58;;;5.30;99.90;;;;;;4967775;28;20828;-83
2024/02/27 02:16:14;;;;;;;37.15;22.70;;;5.30;99.90;;;;;;4972158;28;20034;-84
2024/02/27 02:18:40;;;;;;;37.47;22.48;;;5.30;99.90;;;;;;4967087;28;20141;-82
2024/02/27 02:21:06;;;;;;;37.08;22.92;;;5.20;99.90;;;;;;4983166;28;20037;-82
2024/02/27 02:23:31;;;;;;;34.10;21.80;;;5.20;99.90;;;;;;4994791;28;20682;-83
2024/02/27 02:25:57;;;;;;;36.42;21.85;;;5.30;99.90;;;;;;4979462;28;20481;-83
2024/02/27 02:28:22;;;;;;;41.45;26.40;;;5.30;99.90;;;;;;4967855;28;20029;-84
2024/02/27 02:30:48;;;;;;;37.17;24.33;;;5.30;99.90;;;;;;4966319;28;20038;-84
2024/02/27 02:33:13;;;;;;;37.90;22.60;;;5.20;99.90;;;;;;4965516;28;20038;-84
2024/02/27 02:35:43;;;;;;;35.97;22.92;;;5.20;99.90;;;;;;4967937;28;20038;-84
2024/02/27 02:38:09;;;;;;;34.53;21.15;;;5.30;99.90;;;;;;4982940;28;20117;-84
2024/02/27 02:40:35;;;;;;;37.78;21.35;;;5.30;99.90;;;;;;4983105;28;20056;-84
2024/02/27 02:43:00;;;;;;;40.13;23.27;;;5.20;99.90;;;;;;4969356;28;20029;-84
2024/02/27 02:45:26;;;;;;;36.70;22.60;;;5.30;99.90;;;;;;4968373;28;20094;-84
2024/02/27 02:47:54;;;;;;;37.38;21.15;;;5.30;99.90;;;;;;4981735;28;20456;-84
2024/02/27 02:50:19;;;;;;;36.53;21.75;;;5.30;99.90;;;;;;4968910;28;20038;-84
2024/02/27 02:52:45;;;;;;;37.13;23.75;;;5.30;99.90;;;;;;4978281;28;20038;-84
2024/02/27 02:55:11;;;;;;;31.90;20.67;;;5.30;99.90;;;;;;4982753;28;20466;-84
2024/02/27 02:57:38;;;;;;;39.33;23.55;;;5.30;99.90;;;;;;4983261;28;20034;-83
2024/02/27 03:00:04;;;;;;;38.03;23.20;;;5.30;99.90;;;;;;4968003;28;20018;-83
2024/02/27 03:02:30;;;;;;;35.47;24.10;;;5.30;99.90;;;;;;4966318;28;20025;-83
2024/02/27 03:04:57;;;;;;;34.85;23.27;;;5.30;99.90;;;;;;4969646;28;20035;-84
2024/02/27 03:07:22;;;;;;;35.42;22.92;;;5.20;99.90;;;;;;4996517;28;20114;-84
2024/02/27 03:09:48;;;;;;;35.88;22.98;;;5.20;99.90;;;;;;4967099;28;20109;-84
2024/02/27 03:12:13;;;;;;;35.30;22.25;;;5.20;99.90;;;;;;4967692;28;20097;-84
2024/02/27 03:14:45;;;;;;;33.50;21.42;;;5.20;99.90;;;;;;4967296;28;20519;-84
2024/02/27 03:17:13;;;;;;;39.80;23.63;;;5.20;99.90;;;;;;4967415;28;20045;-84
2024/02/27 03:19:39;;;;;;;33.83;20.13;;;5.20;99.90;;;;;;4977964;28;20069;-84
2024/02/27 03:22:04;;;;;;;34.08;20.77;;;5.20;99.90;;;;;;4984548;28;20080;-84
2024/02/27 03:24:31;;;;;;;38.05;22.15;;;5.20;99.90;;;;;;4967017;28;20029;-84
2024/02/27 03:26:57;;;;;;;33.08;21.83;;;5.20;99.90;;;;;;4996454;28;20032;-84
2024/02/27 03:29:23;;;;;;;34.13;21.17;;;5.20;99.90;;;;;;4985603;28;20022;-84
2024/02/27 03:31:48;;;;;;;37.55;24.73;;;5.20;99.90;;;;;;4982166;28;20084;-84
2024/02/27 03:34:14;;;;;;;33.55;20.50;;;5.10;99.90;;;;;;4969040;28;20410;-84
2024/02/27 03:36:40;;;;;;;37.20;21.70;;;5.10;99.90;;;;;;4963848;28;20046;-84
2024/02/27 03:39:05;;;;;;;34.30;21.65;;;5.10;99.90;;;;;;4963354;28;20038;-84
2024/02/27 03:41:31;;;;;;;33.90;24.40;;;5.10;99.90;;;;;;4995196;28;20588;-84
2024/02/27 03:43:57;;;;;;;37.10;21.60;;;5.00;99.90;;;;;;4985476;28;20376;-84
2024/02/27 03:46:22;;;;;;;34.45;22.58;;;5.00;99.90;;;;;;4967996;28;20069;-83
2024/02/27 03:48:48;;;;;;;36.50;21.63;;;5.10;99.90;;;;;;4966449;28;20034;-84
2024/02/27 03:51:13;;;;;;;37.08;22.55;;;5.00;99.90;;;;;;4965759;28;20034;-84
2024/02/27 03:53:39;;;;;;;35.50;21.38;;;5.00;99.90;;;;;;4977712;28;20511;-84
2024/02/27 03:56:05;;;;;;;37.17;21.75;;;5.10;99.90;;;;;;4976941;28;20590;-84
2024/02/27 03:58:31;;;;;;;36.80;21.77;;;5.10;99.90;;;;;;4968859;28;20066;-84
2024/02/27 04:00:57;;;;;;;37.78;21.77;;;5.10;99.90;;;;;;4968314;28;20092;-84
2024/02/27 04:03:22;;;;;;;36.55;22.52;;;5.10;99.90;;;;;;4968055;28;20488;-83
2024/02/27 04:05:48;;;;;;;36.40;22.73;;;5.00;99.90;;;;;;4983780;28;20446;-84
2024/02/27 04:08:13;;;;;;;35.63;23.10;;;5.00;99.90;;;;;;4967723;28;20022;-84
2024/02/27 04:10:39;;;;;;;36.17;22.50;;;5.10;99.90;;;;;;4963111;28;20084;-84
2024/02/27 04:13:05;;;;;;;34.95;20.90;;;5.00;99.90;;;;;;4982096;28;20038;-83
2024/02/27 04:15:30;;;;;;;36.22;22.05;;;5.00;99.90;;;;;;4977098;28;20113;-84
2024/02/27 04:17:57;;;;;;;33.63;22.13;;;5.00;99.90;;;;;;4968472;28;20033;-84
2024/02/27 04:20:23;;;;;;;34.13;20.83;;;5.00;99.90;;;;;;4967329;28;20126;-84
2024/02/27 04:22:49;;;;;;;32.45;20.67;;;4.90;99.90;;;;;;4967240;28;20101;-83
2024/02/27 04:25:14;;;;;;;35.28;21.85;;;5.00;99.90;;;;;;4962962;28;20548;-85
2024/02/27 04:27:40;;;;;;;37.75;23.67;;;5.00;99.90;;;;;;4965330;28;20113;-84
2024/02/27 04:30:08;;;;;;;35.53;24.50;;;5.00;99.90;;;;;;4983578;28;20442;-83
2024/02/27 04:32:34;;;;;;;36.47;20.90;;;5.00;99.90;;;;;;4976954;28;20030;-83
2024/02/27 04:35:00;;;;;;;37.28;23.02;;;5.00;99.90;;;;;;4984017;28;20035;-84
2024/02/27 04:37:25;;;;;;;31.95;20.40;;;5.00;99.90;;;;;;4995833;28;20037;-83
2024/02/27 04:39:51;;;;;;;37.30;23.15;;;5.00;99.90;;;;;;4981126;28;20116;-84
2024/02/27 04:42:17;;;;;;;37.80;22.80;;;5.00;99.90;;;;;;4967607;28;20034;-84
2024/02/27 04:44:42;;;;;;;38.05;24.23;;;5.00;99.90;;;;;;4965234;28;20034;-83
2024/02/27 04:47:08;;;;;;;35.15;21.30;;;5.00;99.90;;;;;;4964846;28;20034;-83
2024/02/27 04:49:34;;;;;;;37.95;24.25;;;5.00;99.90;;;;;;4982850;28;20030;-84
2024/02/27 04:51:59;;;;;;;37.60;22.73;;;5.00;99.90;;;;;;4964648;28;20488;-84
2024/02/27 04:54:25;;;;;;;38.28;22.52;;;5.00;99.90;;;;;;4968597;28;20034;-84
2024/02/27 04:56:50;;;;;;;38.15;23.17;;;5.10;99.90;;;;;;4964619;28;20042;-83
2024/02/27 04:59:16;;;;;;;39.83;21.70;;;5.00;99.90;;;;;;4967788;28;20057;-83
2024/02/27 05:01:47;;;;;;;35.67;21.77;;;5.00;99.90;;;;;;4964881;28;20128;-84
2024/02/27 05:04:12;;;;;;;35.03;21.70;;;5.00;99.90;;;;;;4963543;28;20035;-84
2024/02/27 05:06:38;;;;;;;35.25;21.25;;;5.00;99.90;;;;;;4966146;28;20060;-83
2024/02/27 05:09:03;;;;;;;38.15;22.58;;;5.00;99.90;;;;;;4984756;28;20032;-83
2024/02/27 05:11:32;;;;;;;37.70;22.75;;;5.00;99.90;;;;;;4966907;28;20371;-82
2024/02/27 05:13:57;;;;;;;40.05;25.60;;;5.10;99.90;;;;;;4992308;28;20373;-82
2024/02/27 05:16:25;;;;;;;37.40;21.67;;;5.00;99.90;;;;;;4976808;28;20044;-84
2024/02/27 05:18:51;;;;;;;37.70;22.90;;;5.00;99.90;;;;;;4961445;28;20096;-83
2024/02/27 05:21:18;;;;;;;37.38;22.40;;;5.00;99.90;;;;;;4960444;28;20042;-83
2024/02/27 05:23:44;;;;;;;37.80;22.58;;;5.00;99.90;;;;;;4960848;28;20034;-83
2024/02/27 05:26:10;;;;;;;38.78;21.88;;;5.00;99.90;;;;;;4990658;28;20131;-84
2024/02/27 05:28:37;;;;;;;40.28;23.85;;;5.00;99.90;;;;;;4978293;28;20345;-83
2024/02/27 05:31:25;;;;;;;37.63;22.77;;;5.00;99.90;;;;;;4956063;28;20514;-84
2024/02/27 05:33:57;;;;;;;34.78;20.67;;;5.00;99.90;;;;;;4963681;28;20459;-84
2024/02/27 05:36:23;;;;;;;40.97;25.58;;;5.00;99.90;;;;;;4969473;28;20035;-85
2024/02/27 05:38:50;;;;;;;38.42;21.98;;;4.90;99.90;;;;;;4968301;28;20038;-83
2024/02/27 05:41:17;;;;;;;36.78;23.00;;;4.90;99.90;;;;;;4981314;28;20095;-86
2024/02/27 05:43:43;;;;;;;37.78;23.30;;;4.90;99.90;;;;;;4967649;28;20508;-84
2024/02/27 05:46:09;;;;;;;45.97;23.67;;;4.90;99.90;;;;;;4978763;28;20041;-83
2024/02/27 05:48:36;;;;;;;39.50;23.88;;;4.90;99.90;;;;;;4973264;28;20183;-84
2024/02/27 05:51:01;;;;;;;42.17;24.83;;;5.00;99.90;;;;;;4941882;28;20045;-87
2024/02/27 05:53:29;;;;;;;37.90;22.73;;;4.90;99.90;;;;;;4966521;28;20412;-88
2024/02/27 05:55:55;;;;;;;40.13;23.02;;;4.90;99.90;;;;;;4966473;28;20030;-87
2024/02/27 05:58:23;;;;;;;39.28;23.77;;;4.80;99.90;;;;;;4967805;28;20036;-87
2024/02/27 06:00:49;;;;;;;41.55;24.98;;;4.90;99.90;;;;;;4951617;28;20068;-88
2024/02/27 06:03:14;;;;;;;38.80;23.92;;;4.90;99.90;;;;;;4973065;28;20041;-87
2024/02/27 06:05:40;;;;;;;40.15;23.65;;;4.90;99.90;;;;;;4973054;28;20086;-86
2024/02/27 06:08:06;;;;;;;40.15;23.48;;;4.90;99.90;;;;;;4968822;28;20128;-89
2024/02/27 06:10:35;;;;;;;44.03;26.30;;;4.90;99.90;;;;;;4990695;28;20034;-91
2024/02/27 06:13:00;;;;;;;42.33;24.85;;;4.90;99.90;;;;;;4978002;28;20030;-87
2024/02/27 06:15:26;;;;;;;39.17;24.23;;;4.90;99.90;;;;;;4993890;28;20035;-85
2024/02/27 06:17:52;;;;;;;42.08;25.73;;;4.90;99.90;;;;;;4980324;28;20034;-90
2024/02/27 06:23:02;;;;;;;43.60;24.85;;;4.80;99.90;;;;;;4992189;28;20049;-87
2024/02/27 06:25:29;;;;;;;41.00;26.30;;;4.80;99.90;;;;;;4986682;28;20034;-88
2024/02/27 06:27:54;;;;;;;45.83;25.80;;;4.80;99.90;;;;;;4991517;28;20085;-90
2024/02/27 06:30:20;;;;;;;44.42;26.75;;;4.90;99.90;;;;;;4986973;28;20121;-91
2024/02/27 06:32:46;;;;;;;41.83;23.92;;;4.90;99.90;;;;;;4987786;28;20057;-90
2024/02/27 06:35:11;;;;;;;44.20;25.90;;;4.80;99.90;;;;;;4976382;28;20037;-89
2024/02/27 06:37:37;;;;;;;45.50;26.45;;;4.80;99.90;;;;;;5000410;28;20045;-90
2024/02/27 06:40:04;;;;;;;41.35;24.80;;;4.80;99.90;;;;;;4983880;28;20488;-91
2024/02/27 06:42:36;;;;;;;44.42;24.38;;;4.80;99.90;;;;;;4979099;28;20441;-89
2024/02/27 06:45:06;;;;;;;39.58;22.98;;;4.80;99.90;;;;;;4970678;28;20467;-89
2024/02/27 06:47:31;;;;;;;41.03;23.20;;;4.80;99.90;;;;;;4972929;28;20037;-90
2024/02/27 06:49:58;;;;;;;41.13;25.42;;;4.80;99.90;;;;;;4997864;28;20053;-90
2024/02/27 06:52:26;;;;;;;42.08;22.67;;;4.80;99.90;;;;;;4972378;28;20023;-90
2024/02/27 06:54:52;;;;;;;40.65;23.80;;;4.80;99.90;;;;;;4985275;28;20061;-90
2024/02/27 06:57:18;;;;;;;37.67;22.35;;;4.90;99.90;;;;;;4985366;28;20057;-88
2024/02/27 06:59:44;;;;;;;44.00;25.02;;;4.90;99.90;;;;;;4974551;28;20037;-87
2024/02/27 07:02:10;;;;;;;39.50;20.73;;;4.90;99.90;;;;;;4981693;28;20109;-90
2024/02/27 07:04:35;;;;;;;38.00;22.70;;;4.90;99.90;;;;;;4984829;28;20114;-87
2024/02/27 07:07:02;;;;;;;41.55;25.05;;;5.00;99.90;;;;;;4968305;28;20030;-89
2024/02/27 07:09:28;;;;;;;40.50;23.80;;;5.00;99.90;;;;;;4970911;28;20855;-89
2024/02/27 07:11:56;;;;;;;41.67;23.52;;;5.00;99.90;;;;;;4981079;28;20045;-89
2024/02/27 07:14:22;;;;;;;41.60;23.75;;;5.00;99.90;;;;;;4973879;28;20026;-89
2024/02/27 07:16:48;;;;;;;40.78;23.83;;;5.00;99.90;;;;;;4979006;28;20126;-90
2024/02/27 07:19:19;;;;;;;43.00;24.65;;;5.00;99.90;;;;;;4969840;28;20030;-91
2024/02/27 07:21:45;;;;;;;45.50;28.33;;;5.00;99.90;;;;;;4985575;28;20053;-91
2024/02/27 07:24:11;;;;;;;42.72;25.25;;;5.00;99.90;;;;;;4970727;28;20041;-88
2024/02/27 07:26:37;;;;;;;43.83;25.83;;;5.00;99.90;;;;;;4973901;28;20084;-85
2024/02/27 07:29:03;;;;;;;41.28;22.90;;;5.00;99.90;;;;;;4970373;28;20034;-91
2024/02/27 07:31:30;;;;;;;43.70;24.65;;;5.10;99.90;;;;;;4990517;28;20046;-88
2024/02/27 07:33:56;;;;;;;42.58;24.92;;;5.10;99.90;;;;;;4986891;28;20041;-91
2024/02/27 07:36:22;;;;;;;43.40;25.42;;;5.10;99.90;;;;;;4976415;28;20030;-92
2024/02/27 07:38:47;;;;;;;44.45;25.58;;;5.10;99.90;;;;;;4961990;28;20026;-90
2024/02/27 07:41:19;;;;;;;43.97;24.33;;;5.10;99.90;;;;;;4970185;28;20038;-88
2024/02/27 07:43:45;;;;;;;46.20;26.02;;;5.30;99.90;;;;;;4967055;28;20038;-90
2024/02/27 07:46:14;;;;;;;50.17;26.77;;;5.20;99.90;;;;;;4971129;28;20038;-89
2024/02/27 07:48:42;;;;;;;42.50;24.30;;;5.20;99.90;;;;;;4988609;28;20124;-90
2024/02/27 07:51:25;;;;;;;43.80;24.48;;;5.20;99.90;;;;;;4974055;28;20038;-91
2024/02/27 07:53:50;;;;;;;44.10;26.25;;;5.30;99.90;;;;;;4971964;28;20104;-89
2024/02/27 07:56:16;;;;;;;46.45;28.48;;;5.30;99.90;;;;;;4986722;28;20029;-90
2024/02/27 07:58:42;;;;;;;40.33;24.17;;;5.40;99.90;;;;;;4993503;28;20041;-81
2024/02/27 08:01:07;;;;;;;40.92;23.23;;;5.40;99.90;;;;;;4967279;28;20125;-80
2024/02/27 08:03:33;;;;;;;44.35;26.73;;;5.40;99.90;;;;;;4965671;28;20030;-80
2024/02/27 08:05:58;;;;;;;43.08;24.50;;;5.50;99.90;;;;;;4969162;28;20042;-80
2024/02/27 08:08:24;;;;;;;41.35;23.65;;;5.40;99.90;;;;;;4963838;28;20022;-81
2024/02/27 08:10:50;;;;;;;39.67;23.65;;;5.50;99.90;;;;;;4983696;28;20392;-80
2024/02/27 08:13:17;;;;;;;39.80;23.15;;;5.50;99.90;;;;;;4964943;28;20041;-80
2024/02/27 08:15:44;;;;;;;40.63;24.17;;;5.50;99.90;;;;;;4979571;28;20782;-81
2024/02/27 08:18:11;;;;;;;42.65;25.48;;;5.60;99.90;;;;;;4962802;28;20041;-80
2024/02/27 08:20:36;;;;;;;39.55;25.45;;;5.60;99.90;;;;;;4963674;28;20082;-80
2024/02/27 08:23:02;;;;;;;39.00;19.98;;;5.60;99.90;;;;;;4964735;28;20447;-80
2024/02/27 08:25:28;;;;;;;40.28;23.45;;;5.60;99.90;;;;;;4997908;28;20077;-80
2024/02/27 08:27:54;;;;;;;41.10;23.90;;;5.70;99.90;;;;;;4968813;28;20178;-80
2024/02/27 08:30:20;;;;;;;40.78;23.88;;;5.70;99.90;;;;;;4983010;28;20519;-80
2024/02/27 08:32:45;;;;;;;36.63;20.88;;;5.80;99.90;;;;;;4966578;28;20041;-80
2024/02/27 08:35:11;;;;;;;45.40;27.10;;;5.80;99.90;;;;;;4964038;28;20125;-80
2024/02/27 08:37:36;;;;;;;36.75;23.02;;;5.80;99.90;;;;;;4978535;28;20026;-79
2024/02/27 08:40:02;;;;;;;38.00;26.00;;;5.80;99.90;;;;;;4992855;28;20035;-80
2024/02/27 08:42:28;;;;;;;41.47;23.02;;;5.80;99.90;;;;;;4968372;28;20065;-80
2024/02/27 08:44:54;;;;;;;36.45;21.75;;;5.80;99.90;;;;;;4970245;28;20041;-80
2024/02/27 08:47:19;;;;;;;38.58;23.77;;;5.90;99.90;;;;;;4967406;28;20045;-80
2024/02/27 08:49:45;;;;;;;37.40;21.63;;;5.90;99.90;;;;;;4965586;28;20034;-79
2024/02/27 08:52:11;;;;;;;38.03;22.23;;;6.00;99.90;;;;;;4967741;28;21593;-80
2024/02/27 08:54:36;;;;;;;39.42;22.83;;;6.10;99.90;;;;;;4978433;28;20562;-80
2024/02/27 08:57:03;;;;;;;39.05;22.58;;;6.10;99.90;;;;;;4969574;28;20034;-81
2024/02/27 08:59:29;;;;;;;37.42;23.38;;;6.10;99.90;;;;;;4971329;28;20770;-81
2024/02/27 09:01:55;;;;;;;42.55;22.65;;;6.20;99.90;;;;;;4983707;28;20129;-82
2024/02/27 09:04:20;;;;;;;42.53;25.45;;;6.20;99.90;;;;;;4952249;28;20034;-81
2024/02/27 09:06:46;;;;;;;41.78;25.88;;;6.20;99.90;;;;;;4982375;28;20118;-81
2024/02/27 09:09:12;;;;;;;42.13;25.52;;;6.20;99.90;;;;;;4968528;28;20038;-89
2024/02/27 09:11:37;;;;;;;47.85;26.83;;;6.30;99.90;;;;;;4968838;28;20034;-87
2024/02/27 09:14:03;;;;;;;47.00;28.27;;;6.30;99.90;;;;;;4962279;28;20519;-88
2024/02/27 09:16:29;;;;;;;45.95;27.25;;;6.40;99.90;;;;;;4985863;28;20388;-87
2024/02/27 09:18:55;;;;;;;52.63;28.20;;;6.40;99.90;;;;;;4969503;28;20038;-87
2024/02/27 09:21:20;;;;;;;44.42;25.38;;;6.40;99.90;;;;;;4970193;28;20041;-89
2024/02/27 09:23:46;;;;;;;46.72;26.75;;;6.70;99.90;;;;;;4985103;28;20042;-90
2024/02/27 09:26:12;;;;;;;49.55;31.40;;;6.60;99.90;;;;;;4983905;28;20037;-89
2024/02/27 09:28:37;;;;;;;47.83;30.92;;;6.70;99.90;;;;;;4967700;28;20022;-88
2024/02/27 09:31:04;;;;;;;50.72;32.00;;;6.80;99.90;;;;;;4967846;28;20030;-88
2024/02/27 09:33:30;;;;;;;47.85;29.23;;;6.80;99.90;;;;;;4996504;28;20061;-89
2024/02/27 09:35:56;;;;;;;48.22;29.75;;;6.80;99.90;;;;;;4989185;28;20053;-88
2024/02/27 09:38:21;;;;;;;48.40;30.05;;;6.90;99.90;;;;;;4971090;28;20673;-87
2024/02/27 09:40:47;;;;;;;50.15;28.60;;;6.90;99.90;;;;;;4967994;28;20035;-89
2024/02/27 09:43:18;;;;;;;42.80;25.00;;;7.00;99.90;;;;;;4968656;28;20041;-87
2024/02/27 09:45:44;;;;;;;43.08;27.30;;;7.20;99.90;;;;;;4979191;28;20070;-88
2024/02/27 09:48:10;;;;;;;41.47;25.75;;;7.20;99.90;;;;;;4975502;28;20066;-89
2024/02/27 09:50:35;;;;;;;41.45;23.50;;;7.40;99.90;;;;;;4988981;28;20084;-88
2024/02/27 09:53:01;;;;;;;39.20;24.70;;;7.30;99.90;;;;;;4975235;28;20109;-88
2024/02/27 09:55:26;;;;;;;39.63;25.60;;;7.30;99.90;;;;;;4990229;28;20031;-88
2024/02/27 09:57:52;;;;;;;36.78;22.75;;;7.30;99.90;;;;;;4973634;28;20036;-89
2024/02/27 10:00:18;;;;;;;45.10;32.40;;;7.40;99.90;;;;;;4976417;28;20035;-88
2024/02/27 10:02:45;;;;;;;45.85;28.90;;;7.40;99.90;;;;;;4971009;28;20034;-87
2024/02/27 10:05:11;;;;;;;41.40;26.40;;;7.40;99.90;;;;;;4972018;28;20041;-86
2024/02/27 10:07:36;;;;;;;42.33;28.27;;;7.40;99.90;;;;;;4993121;28;20030;-89
2024/02/27 10:10:03;;;;;;;36.20;23.42;;;7.40;99.90;;;;;;4985546;28;20111;-88
2024/02/27 10:12:29;;;;;;;36.67;22.63;;;7.30;99.90;;;;;;4982917;28;20395;-89
2024/02/27 10:14:55;;;;;;;35.58;22.13;;;7.30;99.90;;;;;;4968885;28;20045;-88
2024/02/27 10:17:20;;;;;;;34.80;24.15;;;7.20;99.90;;;;;;4988879;28;20030;-89
2024/02/27 10:19:47;;;;;;;35.13;22.40;;;7.20;99.90;;;;;;4972283;28;20281;-81
2024/02/27 10:22:13;;;;;;;32.95;23.25;;;7.10;99.90;;;;;;4971166;28;20038;-81
2024/02/27 10:24:39;;;;;;;32.60;19.27;;;7.10;99.90;;;;;;4969745;28;20030;-81
2024/02/27 10:27:07;;;;;;;35.15;21.83;;;7.10;99.90;;;;;;4983003;28;20030;-81
2024/02/27 10:29:33;;;;;;;36.83;23.85;;;7.10;99.90;;;;;;4985374;28;20785;-81
2024/02/27 10:31:58;;;;;;;38.35;22.30;;;7.10;99.90;;;;;;4965010;28;20039;-81
2024/02/27 10:34:25;;;;;;;35.33;22.60;;;7.10;99.90;;;;;;4969856;28;20033;-81
2024/02/27 10:37:00;;;;;;;40.20;24.77;;;7.20;99.90;;;;;;4971066;28;20512;-81
2024/02/27 10:39:26;;;;;;;34.63;22.08;;;7.20;99.90;;;;;;4983702;28;20559;-81
2024/02/27 10:41:52;;;;;;;35.47;24.98;;;7.20;99.90;;;;;;4968329;28;20040;-81
2024/02/27 10:44:18;;;;;;;30.95;20.05;;;7.20;99.90;;;;;;4970091;28;20173;-81
2024/02/27 10:46:47;;;;;;;36.50;21.58;;;7.20;99.90;;;;;;4972897;28;20487;-81
2024/02/27 10:49:13;;;;;;;35.15;23.17;;;7.20;99.90;;;;;;4970798;28;20396;-81
2024/02/27 10:51:39;;;;;;;34.30;20.70;;;7.20;99.90;;;;;;4970482;28;20496;-81
2024/02/27 10:54:05;;;;;;;35.08;22.17;;;7.30;99.90;;;;;;4971098;28;20040;-81
2024/02/27 10:56:30;;;;;;;32.65;20.05;;;7.30;99.90;;;;;;4964165;28;20038;-81
2024/02/27 10:58:56;;;;;;;32.05;19.52;;;7.40;99.90;;;;;;4967634;28;20027;-81
2024/02/27 11:01:22;;;;;;;32.85;20.63;;;7.50;99.90;;;;;;4958201;28;20026;-81
2024/02/27 11:03:51;;;;;;;28.15;17.55;;;7.50;99.90;;;;;;4960129;28;20542;-81
2024/02/27 11:06:23;;;;;;;31.75;19.65;;;7.80;99.90;;;;;;4964205;28;20117;-82
2024/02/27 11:08:54;;;;;;;31.08;19.50;;;7.90;99.90;;;;;;4970005;28;20038;-82
2024/02/27 11:11:20;;;;;;;31.85;20.50;;;8.10;99.90;;;;;;4970761;28;20113;-82
2024/02/27 11:13:46;;;;;;;29.95;19.13;;;8.10;99.90;;;;;;4993948;28;20038;-82
2024/02/27 11:16:12;;;;;;;32.92;19.17;;;8.20;99.90;;;;;;4984682;28;20065;-81
2024/02/27 11:18:38;;;;;;;30.83;20.05;;;8.20;99.90;;;;;;4984135;28;20081;-81
2024/02/27 11:21:04;;;;;;;33.10;20.40;;;8.30;99.90;;;;;;5000038;28;20065;-81
2024/02/27 11:23:30;;;;;;;34.72;25.77;;;8.40;99.90;;;;;;4967814;28;20750;-82
2024/02/27 11:25:56;;;;;;;34.65;24.00;;;8.60;99.90;;;;;;4987114;28;20053;-82
2024/02/27 11:28:22;;;;;;;37.25;23.40;;;8.80;99.90;;;;;;4971316;28;20491;-82
2024/02/27 11:30:48;;;;;;;40.67;26.95;;;8.80;99.90;;;;;;4970798;28;20026;-86
2024/02/27 11:33:13;;;;;;;39.22;24.42;;;8.90;99.90;;;;;;4972296;28;20110;-86
2024/02/27 11:35:39;;;;;;;38.75;26.08;;;9.00;99.90;;;;;;4973652;28;20389;-87
2024/02/27 11:38:06;;;;;;;39.28;25.85;;;9.00;99.90;;;;;;4972075;28;20053;-87
2024/02/27 11:41:01;;;;;;;37.60;25.27;;;9.20;99.90;;;;;;4971374;28;21142;-87
2024/02/27 11:43:27;;;;;;;37.53;25.55;;;9.20;99.90;;;;;;4985801;28;20069;-87
2024/02/27 11:45:55;;;;;;;38.90;25.92;;;9.30;99.90;;;;;;4971624;28;20441;-87
2024/02/27 11:48:49;;;;;;;37.53;24.35;;;9.40;99.90;;;;;;4974554;28;20038;-87
2024/02/27 11:51:19;;;;;;;34.90;23.95;;;9.40;99.90;;;;;;5002443;28;20034;-86
2024/02/27 11:53:45;;;;;;;33.63;23.15;;;9.40;99.90;;;;;;4985827;28;20550;-87
2024/02/27 11:56:10;;;;;;;35.28;22.60;;;9.50;99.90;;;;;;4982153;28;20033;-85
2024/02/27 11:58:36;;;;;;;47.20;29.88;;;9.50;99.90;;;;;;5006546;28;20464;-88
2024/02/27 12:01:05;;;;;;;48.15;32.33;;;9.70;99.90;;;;;;4992316;28;22720;-87
2024/02/27 12:03:30;;;;;;;42.70;29.40;;;9.70;99.90;;;;;;4970734;28;20034;-88
2024/02/27 12:06:00;;;;;;;44.63;28.73;;;9.90;99.90;;;;;;4969956;28;20092;-87
2024/02/27 12:08:26;;;;;;;39.83;27.00;;;10.00;99.90;;;;;;4999938;28;20385;-86
2024/02/27 12:10:51;;;;;;;41.22;30.30;;;10.10;99.90;;;;;;4970785;28;20027;-86
2024/02/27 12:13:26;;;;;;;40.58;25.88;;;10.00;99.90;;;;;;4592009;28;10001354;-87
2024/02/27 12:15:58;;;;;;;36.22;24.17;;;10.10;99.90;;;;;;4984611;28;20261;-87
2024/02/27 12:18:24;;;;;;;37.60;24.48;;;10.20;99.90;;;;;;4965356;28;20436;-87
2024/02/27 12:20:51;;;;;;;32.95;24.50;;;10.00;99.90;;;;;;4970928;28;20033;-88
2024/02/27 12:23:17;;;;;;;29.48;18.92;;;10.20;99.90;;;;;;4965461;28;20034;-86
2024/02/27 12:25:43;;;;;;;26.38;18.08;;;10.30;99.90;;;;;;4986120;28;20034;-87
2024/02/27 12:28:08;;;;;;;33.08;19.02;;;10.40;99.90;;;;;;4983905;28;20056;-88
2024/02/27 12:30:34;;;;;;;26.55;18.13;;;10.40;99.90;;;;;;4984022;28;20021;-87
2024/02/27 12:32:59;;;;;;;25.92;16.65;;;10.40;99.90;;;;;;4967532;28;20053;-83
2024/02/27 12:35:26;;;;;;;25.17;17.60;;;10.50;99.90;;;;;;4966742;28;20044;-86
2024/02/27 12:37:52;;;;;;;27.30;17.05;;;10.60;99.90;;;;;;4981240;28;20054;-88
2024/02/27 12:40:20;;;;;;;27.02;18.50;;;10.60;99.90;;;;;;4967018;28;21088;-83
2024/02/27 12:42:50;;;;;;;30.58;20.63;;;10.60;99.90;;;;;;4986306;28;20407;-83
2024/02/27 12:45:16;;;;;;;20.85;14.23;;;10.50;99.90;;;;;;4976914;28;20428;-83
2024/02/27 12:47:50;;;;;;;25.45;17.65;;;10.50;99.90;;;;;;4969532;28;20038;-84